Norwegian Sun — C6RN3 — position and weather

sailwx.info

Track history (hours):
 
Tides and Currents Weather Stations Pressure Air Temp Water Temp Dewpoint Dewpoint Depression Visibility Wind Speed Wind Dir Waves Ship Positions

Norwegian Sun

Operator: Norwegian Cruise Line

Last reported at 2020-Jul-11 03:28 UTC. Time now 2020-Jul-11 07:58 UTC.
Position N 25°47' W 080°10'.

Type: Passenger vessel. MMSI: 311109000.

Date/timePositionNaut miles runAvg speedWind from/ knotsBaromVisibWave heightAir tempDewpointWater temp
2020-Jul-11 03:28N 25°47' W 080°10'0 0.0
2020-Jul-11 03:01N 25°47' W 080°10'0 0.0
2020-Jul-11 02:31N 25°47' W 080°10'0 0.0
2020-Jul-11 02:01N 25°47' W 080°10'0 0.0
2020-Jul-11 00:58N 25°47' W 080°10'0 0.0
2020-Jul-10 22:28N 25°47' W 080°10'0 0.0
2020-Jul-10 19:28N 25°47' W 080°10'0 0.0
2020-Jul-10 19:01N 25°47' W 080°10'0 0.0
2020-Jul-10 16:01N 25°47' W 080°10'0 0.0
2020-Jul-10 15:01N 25°47' W 080°10'0 0.0
2020-Jul-10 13:31N 25°47' W 080°10'0 0.0
2020-Jul-10 12:01N 25°47' W 080°10'0 0.0
2020-Jul-10 11:01N 25°47' W 080°10'0 0.0
2020-Jul-10 08:28N 25°47' W 080°10'0 0.0
2020-Jul-10 06:28N 25°47' W 080°10'0 0.0
2020-Jul-10 05:58N 25°47' W 080°10'0 0.0
2020-Jul-10 05:31N 25°47' W 080°10'0 0.0
2020-Jul-10 02:28N 25°47' W 080°10'0 0.0
2020-Jul-10 01:58N 25°47' W 080°10'0 0.0
2020-Jul-10 01:31N 25°47' W 080°10'0 0.0
2020-Jul-10 00:55N 25°47' W 080°10'0 0.0
2020-Jul-10 00:31N 25°47' W 080°10'0 0.0
2020-Jul-09 22:01N 25°47' W 080°10'0 0.0
2020-Jul-09 20:01N 25°47' W 080°10'0 0.0
2020-Jul-09 15:58N 25°47' W 080°10'0 0.0
2020-Jul-09 15:01N 25°47' W 080°10'0 0.0
2020-Jul-09 14:01N 25°47' W 080°10'0 0.0
2020-Jul-09 12:31N 25°47' W 080°10'0 0.0
2020-Jul-09 12:01N 25°47' W 080°10'0 0.0
2020-Jul-09 11:28N 25°47' W 080°10'0 0.0
2020-Jul-09 10:28N 25°47' W 080°10'0 0.0
2020-Jul-09 08:58N 25°47' W 080°10'0 0.0
2020-Jul-09 08:31N 25°47' W 080°10'0 0.0
2020-Jul-09 07:01N 25°47' W 080°10'0 0.0
2020-Jul-09 06:01N 25°47' W 080°10'0 0.0
2020-Jul-09 03:01N 25°47' W 080°10'0 0.0
2020-Jul-08 22:01N 25°47' W 080°10'0 0.0
2020-Jul-08 20:28N 25°47' W 080°10'0 0.0
2020-Jul-08 17:31N 25°47' W 080°10'0 0.0
2020-Jul-08 16:58N 25°47' W 080°10'0 0.0
2020-Jul-08 15:31N 25°47' W 080°10'0 0.0
2020-Jul-08 14:01N 25°47' W 080°10'0 0.0
2020-Jul-08 13:31N 25°47' W 080°10'0 0.0
2020-Jul-08 12:58N 25°47' W 080°10'0 0.0
2020-Jul-08 12:28N 25°47' W 080°10'0 0.0
2020-Jul-08 11:01N 25°47' W 080°10'22 3.9
2020-Jul-08 05:31N 25°48' W 079°46'10 4.2
2020-Jul-08 03:00N 25°38' W 079°44'10 2.6
2020-Jul-07 23:01N 25°48' W 079°47'5 4.9
2020-Jul-07 22:01N 25°45' W 079°52'10 6.7
2020-Jul-07 20:30N 25°37' W 079°44'10 5.1
2020-Jul-07 18:31N 25°43' W 079°35'14 5.7
2020-Jul-07 16:00N 25°48' W 079°50'6 6.2
2020-Jul-07 15:00N 25°42' W 079°50'7 6.8
2020-Jul-07 14:01N 25°38' W 079°44'8 8.0
2020-Jul-07 13:00N 25°38' W 079°35'10 6.6
2020-Jul-07 11:30N 25°48' W 079°37'3 6.6
2020-Jul-07 11:00N 25°48' W 079°40'10 2.9
2020-Jul-07 07:30N 25°38' W 079°41'11 5.4
2020-Jul-07 05:30N 25°47' W 079°35'4 7.5
2020-Jul-07 05:01N 25°47' W 079°39'11 7.3
2020-Jul-07 03:30N 25°48' W 079°51'4 7.3
2020-Jul-07 03:01N 25°44' W 079°51'15 4.9
2020-Jul-07 00:01N 25°44' W 079°35'8 5.2
2020-Jul-06 22:31N 25°48' W 079°43'20 5.7
2020-Jul-06 19:00N 25°48' W 080°05'0 0.0
2020-Jul-06 18:30N 25°48' W 080°05'0 0.0
2020-Jul-06 17:30N 25°48' W 080°05'0 0.0
2020-Jul-06 17:00N 25°48' W 080°05'0 0.0
2020-Jul-06 12:00N 25°48' W 080°05'0 0.0
2020-Jul-06 11:00N 25°48' W 080°05'0 0.0
2020-Jul-06 10:00N 25°48' W 080°05'0 0.0
2020-Jul-06 09:30N 25°48' W 080°05'0 0.0
2020-Jul-06 08:30N 25°48' W 080°05'0 0.0
2020-Jul-06 08:00N 25°48' W 080°05'0 0.0
2020-Jul-06 04:30N 25°48' W 080°05'0 0.0
2020-Jul-06 03:00N 25°48' W 080°05'0 0.0
2020-Jul-06 02:30N 25°48' W 080°05'0 0.0
2020-Jul-06 01:30N 25°48' W 080°05'0 0.0
2020-Jul-05 22:00N 25°48' W 080°05'0 0.0
2020-Jul-05 20:00N 25°48' W 080°05'0 0.0
2020-Jul-05 16:00N 25°48' W 080°05'0 0.0
2020-Jul-05 15:30N 25°48' W 080°05'0 0.0
2020-Jul-05 12:30N 25°48' W 080°05'0 0.0
2020-Jul-05 10:30N 25°48' W 080°05'0 0.0
2020-Jul-05 05:30N 25°48' W 080°05'0 0.1
2020-Jul-05 04:00N 25°48' W 080°05'0 0.0
2020-Jul-05 03:00N 25°48' W 080°05'0 0.0
2020-Jul-05 02:00N 25°48' W 080°05'0 0.1
2020-Jul-04 22:30N 25°48' W 080°05'0 0.0
2020-Jul-04 20:00N 25°48' W 080°05'0 0.0
2020-Jul-04 19:30N 25°48' W 080°05'0 0.0
2020-Jul-04 18:30N 25°48' W 080°05'0 0.0
2020-Jul-04 12:30N 25°48' W 080°05'0 0.0
2020-Jul-04 11:30N 25°48' W 080°05'0 0.0
2020-Jul-04 03:00N 25°48' W 080°05'0 0.0
2020-Jul-04 02:00N 25°48' W 080°05'0 0.0
2020-Jul-03 21:30N 25°48' W 080°05'0 0.0
2020-Jul-03 21:00N 25°48' W 080°05'0 0.0
2020-Jul-03 18:00N 25°48' W 080°05'0 0.0
2020-Jul-03 16:30N 25°48' W 080°05'0 0.0
2020-Jul-03 16:00N 25°48' W 080°05'0 0.0
2020-Jul-03 15:30N 25°48' W 080°05'0 0.0
2020-Jul-03 14:30N 25°48' W 080°05'0 0.0
2020-Jul-03 14:00N 25°48' W 080°05'0 0.0
2020-Jul-03 13:30N 25°48' W 080°05'0 0.0
2020-Jul-03 10:30N 25°48' W 080°05'0 0.0
2020-Jul-03 10:00N 25°48' W 080°05'0 0.0
2020-Jul-03 09:30N 25°48' W 080°05'0 0.0
2020-Jul-03 09:00N 25°48' W 080°05'0 0.0
2020-Jul-03 08:30N 25°48' W 080°05'0 0.0
2020-Jul-03 06:30N 25°48' W 080°05'0 0.0
2020-Jul-03 04:00N 25°48' W 080°05'0 0.0
2020-Jul-03 03:00N 25°48' W 080°05'0 0.0
2020-Jul-03 02:30N 25°48' W 080°05'0 0.0
2020-Jul-02 20:30N 25°48' W 080°05'0 0.0
2020-Jul-02 19:30N 25°48' W 080°05'0 0.0
2020-Jul-02 18:30N 25°48' W 080°05'0 0.0
2020-Jul-02 16:00N 25°48' W 080°05'0 0.0
2020-Jul-02 14:30N 25°48' W 080°05'0 0.0
2020-Jul-02 11:30N 25°48' W 080°05'0 0.0
2020-Jul-02 11:00N 25°48' W 080°05'0 0.0
2020-Jul-02 10:30N 25°48' W 080°05'0 0.0
2020-Jul-02 09:30N 25°48' W 080°05'0 0.0
2020-Jul-02 09:00N 25°48' W 080°05'0 0.0
2020-Jul-02 06:30N 25°48' W 080°05'0 0.0
2020-Jul-02 04:00N 25°48' W 080°05'0 0.0
2020-Jul-02 03:30N 25°48' W 080°05'0 0.0
2020-Jul-02 02:30N 25°48' W 080°05'0 0.0
2020-Jul-02 01:30N 25°48' W 080°05'0 0.0
2020-Jul-01 23:30N 25°48' W 080°05'0 0.0
2020-Jul-01 18:30N 25°48' W 080°05'0 0.0
2020-Jul-01 16:00N 25°48' W 080°05'0 0.0
2020-Jul-01 13:30N 25°48' W 080°05'0 0.0
2020-Jul-01 05:30N 25°48' W 080°05'0 0.0
2020-Jul-01 04:00N 25°48' W 080°05'  
Track history (hours):
 
Tides and Currents Weather Stations Pressure Air Temp Water Temp Dewpoint Dewpoint Depression Visibility Wind Speed Wind Dir Waves Ship Positions

Norwegian Sun

Operator: Norwegian Cruise Line

Last reported at 2020-Jul-11 03:28 UTC. Time now 2020-Jul-11 07:58 UTC.
Position N 25°47' W 080°10'.

Type: Passenger vessel. MMSI: 311109000.

Date/timePositionNaut miles runAvg speedWind from/ knotsBaromVisibWave heightAir tempDewpointWater temp
2020-Jul-11 03:28N 25°47' W 080°10'0 0.0
2020-Jul-11 03:01N 25°47' W 080°10'0 0.0
2020-Jul-11 02:31N 25°47' W 080°10'0 0.0
2020-Jul-11 02:01N 25°47' W 080°10'0 0.0
2020-Jul-11 00:58N 25°47' W 080°10'0 0.0
2020-Jul-10 22:28N 25°47' W 080°10'0 0.0
2020-Jul-10 19:28N 25°47' W 080°10'0 0.0
2020-Jul-10 19:01N 25°47' W 080°10'0 0.0
2020-Jul-10 16:01N 25°47' W 080°10'0 0.0
2020-Jul-10 15:01N 25°47' W 080°10'0 0.0
2020-Jul-10 13:31N 25°47' W 080°10'0 0.0
2020-Jul-10 12:01N 25°47' W 080°10'0 0.0
2020-Jul-10 11:01N 25°47' W 080°10'0 0.0
2020-Jul-10 08:28N 25°47' W 080°10'0 0.0
2020-Jul-10 06:28N 25°47' W 080°10'0 0.0
2020-Jul-10 05:58N 25°47' W 080°10'0 0.0
2020-Jul-10 05:31N 25°47' W 080°10'0 0.0
2020-Jul-10 02:28N 25°47' W 080°10'0 0.0
2020-Jul-10 01:58N 25°47' W 080°10'0 0.0
2020-Jul-10 01:31N 25°47' W 080°10'0 0.0
2020-Jul-10 00:55N 25°47' W 080°10'0 0.0
2020-Jul-10 00:31N 25°47' W 080°10'0 0.0
2020-Jul-09 22:01N 25°47' W 080°10'0 0.0
2020-Jul-09 20:01N 25°47' W 080°10'0 0.0
2020-Jul-09 15:58N 25°47' W 080°10'0 0.0
2020-Jul-09 15:01N 25°47' W 080°10'0 0.0
2020-Jul-09 14:01N 25°47' W 080°10'0 0.0
2020-Jul-09 12:31N 25°47' W 080°10'0 0.0
2020-Jul-09 12:01N 25°47' W 080°10'0 0.0
2020-Jul-09 11:28N 25°47' W 080°10'0 0.0
2020-Jul-09 10:28N 25°47' W 080°10'0 0.0
2020-Jul-09 08:58N 25°47' W 080°10'0 0.0
2020-Jul-09 08:31N 25°47' W 080°10'0 0.0
2020-Jul-09 07:01N 25°47' W 080°10'0 0.0
2020-Jul-09 06:01N 25°47' W 080°10'0 0.0
2020-Jul-09 03:01N 25°47' W 080°10'0 0.0
2020-Jul-08 22:01N 25°47' W 080°10'0 0.0
2020-Jul-08 20:28N 25°47' W 080°10'0 0.0
2020-Jul-08 17:31N 25°47' W 080°10'0 0.0
2020-Jul-08 16:58N 25°47' W 080°10'0 0.0
2020-Jul-08 15:31N 25°47' W 080°10'0 0.0
2020-Jul-08 14:01N 25°47' W 080°10'0 0.0
2020-Jul-08 13:31N 25°47' W 080°10'0 0.0
2020-Jul-08 12:58N 25°47' W 080°10'0 0.0
2020-Jul-08 12:28N 25°47' W 080°10'0 0.0
2020-Jul-08 11:01N 25°47' W 080°10'22 3.9
2020-Jul-08 05:31N 25°48' W 079°46'10 4.2
2020-Jul-08 03:00N 25°38' W 079°44'10 2.6
2020-Jul-07 23:01N 25°48' W 079°47'5 4.9
2020-Jul-07 22:01N 25°45' W 079°52'10 6.7
2020-Jul-07 20:30N 25°37' W 079°44'10 5.1
2020-Jul-07 18:31N 25°43' W 079°35'14 5.7
2020-Jul-07 16:00N 25°48' W 079°50'6 6.2
2020-Jul-07 15:00N 25°42' W 079°50'7 6.8
2020-Jul-07 14:01N 25°38' W 079°44'8 8.0
2020-Jul-07 13:00N 25°38' W 079°35'10 6.6
2020-Jul-07 11:30N 25°48' W 079°37'3 6.6
2020-Jul-07 11:00N 25°48' W 079°40'10 2.9
2020-Jul-07 07:30N 25°38' W 079°41'11 5.4
2020-Jul-07 05:30N 25°47' W 079°35'4 7.5
2020-Jul-07 05:01N 25°47' W 079°39'11 7.3
2020-Jul-07 03:30N 25°48' W 079°51'4 7.3
2020-Jul-07 03:01N 25°44' W 079°51'15 4.9
2020-Jul-07 00:01N 25°44' W 079°35'8 5.2
2020-Jul-06 22:31N 25°48' W 079°43'20 5.7
2020-Jul-06 19:00N 25°48' W 080°05'0 0.0
2020-Jul-06 18:30N 25°48' W 080°05'0 0.0
2020-Jul-06 17:30N 25°48' W 080°05'0 0.0
2020-Jul-06 17:00N 25°48' W 080°05'0 0.0
2020-Jul-06 12:00N 25°48' W 080°05'0 0.0
2020-Jul-06 11:00N 25°48' W 080°05'0 0.0
2020-Jul-06 10:00N 25°48' W 080°05'0 0.0
2020-Jul-06 09:30N 25°48' W 080°05'0 0.0
2020-Jul-06 08:30N 25°48' W 080°05'0 0.0
2020-Jul-06 08:00N 25°48' W 080°05'0 0.0
2020-Jul-06 04:30N 25°48' W 080°05'0 0.0
2020-Jul-06 03:00N 25°48' W 080°05'0 0.0
2020-Jul-06 02:30N 25°48' W 080°05'0 0.0
2020-Jul-06 01:30N 25°48' W 080°05'0 0.0
2020-Jul-05 22:00N 25°48' W 080°05'0 0.0
2020-Jul-05 20:00N 25°48' W 080°05'0 0.0
2020-Jul-05 16:00N 25°48' W 080°05'0 0.0
2020-Jul-05 15:30N 25°48' W 080°05'0 0.0
2020-Jul-05 12:30N 25°48' W 080°05'0 0.0
2020-Jul-05 10:30N 25°48' W 080°05'0 0.0
2020-Jul-05 05:30N 25°48' W 080°05'0 0.1
2020-Jul-05 04:00N 25°48' W 080°05'0 0.0
2020-Jul-05 03:00N 25°48' W 080°05'0 0.0
2020-Jul-05 02:00N 25°48' W 080°05'0 0.1
2020-Jul-04 22:30N 25°48' W 080°05'0 0.0
2020-Jul-04 20:00N 25°48' W 080°05'0 0.0
2020-Jul-04 19:30N 25°48' W 080°05'0 0.0
2020-Jul-04 18:30N 25°48' W 080°05'0 0.0
2020-Jul-04 12:30N 25°48' W 080°05'0 0.0
2020-Jul-04 11:30N 25°48' W 080°05'0 0.0
2020-Jul-04 03:00N 25°48' W 080°05'0 0.0
2020-Jul-04 02:00N 25°48' W 080°05'0 0.0
2020-Jul-03 21:30N 25°48' W 080°05'0 0.0
2020-Jul-03 21:00N 25°48' W 080°05'0 0.0
2020-Jul-03 18:00N 25°48' W 080°05'0 0.0
2020-Jul-03 16:30N 25°48' W 080°05'0 0.0
2020-Jul-03 16:00N 25°48' W 080°05'0 0.0
2020-Jul-03 15:30N 25°48' W 080°05'0 0.0
2020-Jul-03 14:30N 25°48' W 080°05'0 0.0
2020-Jul-03 14:00N 25°48' W 080°05'0 0.0
2020-Jul-03 13:30N 25°48' W 080°05'0 0.0
2020-Jul-03 10:30N 25°48' W 080°05'0 0.0
2020-Jul-03 10:00N 25°48' W 080°05'0 0.0
2020-Jul-03 09:30N 25°48' W 080°05'0 0.0
2020-Jul-03 09:00N 25°48' W 080°05'0 0.0
2020-Jul-03 08:30N 25°48' W 080°05'0 0.0
2020-Jul-03 06:30N 25°48' W 080°05'0 0.0
2020-Jul-03 04:00N 25°48' W 080°05'0 0.0
2020-Jul-03 03:00N 25°48' W 080°05'0 0.0
2020-Jul-03 02:30N 25°48' W 080°05'0 0.0
2020-Jul-02 20:30N 25°48' W 080°05'0 0.0
2020-Jul-02 19:30N 25°48' W 080°05'0 0.0
2020-Jul-02 18:30N 25°48' W 080°05'0 0.0
2020-Jul-02 16:00N 25°48' W 080°05'0 0.0
2020-Jul-02 14:30N 25°48' W 080°05'0 0.0
2020-Jul-02 11:30N 25°48' W 080°05'0 0.0
2020-Jul-02 11:00N 25°48' W 080°05'0 0.0
2020-Jul-02 10:30N 25°48' W 080°05'0 0.0
2020-Jul-02 09:30N 25°48' W 080°05'0 0.0
2020-Jul-02 09:00N 25°48' W 080°05'0 0.0
2020-Jul-02 06:30N 25°48' W 080°05'0 0.0
2020-Jul-02 04:00N 25°48' W 080°05'0 0.0
2020-Jul-02 03:30N 25°48' W 080°05'0 0.0
2020-Jul-02 02:30N 25°48' W 080°05'0 0.0
2020-Jul-02 01:30N 25°48' W 080°05'0 0.0
2020-Jul-01 23:30N 25°48' W 080°05'0 0.0
2020-Jul-01 18:30N 25°48' W 080°05'0 0.0
2020-Jul-01 16:00N 25°48' W 080°05'0 0.0
2020-Jul-01 13:30N 25°48' W 080°05'0 0.0
2020-Jul-01 05:30N 25°48' W 080°05'0 0.0
2020-Jul-01 04:00N 25°48' W 080°05'  

Dump ship's entire track history